Airfield :
LOGIN :

Register | Disclaimer

   EN    FR    IT 

 










Legend :    VFR   Marginal VFR   IFR   Intensive IFR   Very Intensive IFR
Visi :
Ceiling :
>= 8 km
>= 3000ft
5 to 8 km
1000 to 3000 ft
1500m to 5 km
500 to 1000 ft
800 to 1500m
200 to 500 ft
< 800m
< 200 ft
Symbols :   Thunderstorms  Fog  Heavy snow  Heavy precipitations  Wind > 20 kt
SIGMETs :     Misc.  Thunderstorms  Icing  Turbulence  Mountain Waves  Volcanic Ashes






- Airport Elevation : 209 ft
- IATA code : CLY


LFKC - Calvi

CURRENT METAR :
  • 280730Z AUTO 17007KT CAVOK 09/04 Q1015 BECMG 20015G27KT

EXPIRED METARs :
  • 280700Z AUTO 18007KT CAVOK 09/04 Q1015 BECMG 20015G27KT
  • 280630Z AUTO 18009KT 150V210 CAVOK 11/04 Q1015 BECMG 20015G27KT
  • 280600Z AUTO 16010KT CAVOK 08/04 Q1015 BECMG 20015G27KT
  • 280530Z AUTO 21004KT 170V270 CAVOK 05/03 Q1015 BECMG 20015G27KT
  • 280500Z AUTO VRB02KT CAVOK 04/02 Q1015 BECMG 20015G27KT
  • 280430Z AUTO 15003KT CAVOK 04/02 Q1015 BECMG 20015G27KT

TAF TAF LFKC
Valid from the 28 at 03:00 until the 29 at 03:00 UTC


280200Z 2803/2903 22010KT 9999 FEW040 BKN250 TX17/2821Z TN06/2803Z
BECMG 2806/2809 20015G27KT
TEMPO 2811/2816 BKN014 BKN025
ATIS : +33 4 95 65 82 49



MET'MAP, your aeronautical weather chart ! - Copyright ORBIFLY December 2007 - Disclaimer

ORBIFLY MET'MAP TEAM :

Programming & Development : Alexandra Zaïnal
Concept & original design : Baudouin d'Aumeries
Assistance for programming : Marc-Olivier Méhu
Technical & hardware support : Manuel Goepfert

Contact : metmap@orbifly.com




SOURCES & CREDITS :

   NOAA